createdAt,value
2022-12-31T00:00:01.762Z,98573.44
2022-12-31T00:00:11.811Z,98577.98
2022-12-31T00:00:21.781Z,98554.52
2022-12-31T00:00:31.783Z,98570.20
2022-12-31T00:00:41.766Z,98569.42
2022-12-31T00:00:51.984Z,98565.12
2022-12-31T00:01:01.703Z,98573.05
2022-12-31T00:01:11.811Z,98570.28
2022-12-31T00:01:21.713Z,98573.42
2022-12-31T00:01:31.787Z,98571.03
2022-12-31T00:01:41.787Z,98571.70
2022-12-31T00:01:51.825Z,98572.19
2022-12-31T00:02:01.982Z,98573.73
2022-12-31T00:02:12.002Z,98579.20
2022-12-31T00:02:21.820Z,98584.00
2022-12-31T00:02:31.875Z,98567.06
2022-12-31T00:02:41.873Z,98577.89
2022-12-31T00:02:51.912Z,98572.73
2022-12-31T00:03:01.840Z,98581.39
2022-12-31T00:03:11.903Z,98585.44
2022-12-31T00:03:21.933Z,98571.45
2022-12-31T00:03:31.851Z,98573.56
2022-12-31T00:03:41.686Z,98578.03
2022-12-31T00:03:51.734Z,98574.89
2022-12-31T00:04:01.778Z,98585.37
2022-12-31T00:04:11.745Z,98581.91
2022-12-31T00:04:21.824Z,98570.28
2022-12-31T00:04:31.788Z,98566.47
2022-12-31T00:04:41.687Z,98571.53
2022-12-31T00:04:51.803Z,98564.25
2022-12-31T00:05:01.837Z,98568.05
2022-12-31T00:05:11.799Z,98573.02
2022-12-31T00:05:21.778Z,98583.77
2022-12-31T00:05:31.744Z,98566.82
2022-12-31T00:05:41.802Z,98571.60
2022-12-31T00:05:51.728Z,98577.49
2022-12-31T00:06:01.719Z,98572.80
2022-12-31T00:06:11.803Z,98566.34
2022-12-31T00:06:21.816Z,98571.31
2022-12-31T00:06:31.775Z,98578.55
2022-12-31T00:06:41.715Z,98576.57
2022-12-31T00:06:51.739Z,98573.75
2022-12-31T00:07:01.713Z,98574.91
2022-12-31T00:07:11.791Z,98575.34
2022-12-31T00:07:21.717Z,98577.83
2022-12-31T00:07:52.911Z,98586.97
2022-12-31T00:07:53.108Z,98580.00
2022-12-31T00:07:53.316Z,98582.80
2022-12-31T00:07:53.553Z,98577.96
2022-12-31T00:07:53.754Z,98578.98
2022-12-31T00:07:58.854Z,98567.53
2022-12-31T00:08:02.998Z,98573.39
2022-12-31T00:08:13.026Z,98575.78
2022-12-31T00:08:22.924Z,98577.16
2022-12-31T00:08:32.923Z,98574.56
2022-12-31T00:08:42.987Z,98577.53
2022-12-31T00:08:52.929Z,98577.23
2022-12-31T00:09:07.576Z,98576.73
2022-12-31T00:09:12.967Z,98577.72
2022-12-31T00:09:23.032Z,98579.05
2022-12-31T00:09:32.947Z,98584.02
2022-12-31T00:09:42.933Z,98579.71
2022-12-31T00:09:53.026Z,98584.30
2022-12-31T00:10:02.916Z,98585.16
2022-12-31T00:10:13.018Z,98582.88
2022-12-31T00:10:22.951Z,98584.52
2022-12-31T00:10:32.922Z,98585.34
2022-12-31T00:10:43.040Z,98593.00
2022-12-31T00:10:53.037Z,98594.40
2022-12-31T00:11:02.959Z,98592.98
2022-12-31T00:11:13.018Z,98586.65
2022-12-31T00:11:22.926Z,98593.12
2022-12-31T00:11:33.016Z,98590.78
2022-12-31T00:11:43.025Z,98587.64
2022-12-31T00:11:52.939Z,98589.42
2022-12-31T00:12:02.993Z,98590.58
2022-12-31T00:12:12.947Z,98585.70
2022-12-31T00:12:22.933Z,98585.87
2022-12-31T00:12:32.965Z,98585.42
2022-12-31T00:12:42.973Z,98587.83
2022-12-31T00:12:52.935Z,98588.92
2022-12-31T00:13:03.032Z,98599.42
2022-12-31T00:13:13.025Z,98590.09
2022-12-31T00:13:22.981Z,98589.16
2022-12-31T00:13:32.917Z,98591.64
2022-12-31T00:13:42.948Z,98587.12
2022-12-31T00:13:53.007Z,98594.45
2022-12-31T00:14:03.012Z,98594.20
2022-12-31T00:14:12.954Z,98593.06
2022-12-31T00:14:23.039Z,98593.15
2022-12-31T00:14:33.000Z,98591.57
2022-12-31T00:14:42.952Z,98597.86
2022-12-31T00:14:52.999Z,98592.44
2022-12-31T00:15:03.015Z,98593.17
2022-12-31T00:15:13.041Z,98591.08
2022-12-31T00:15:22.933Z,98588.70
2022-12-31T00:15:33.064Z,98587.05
2022-12-31T00:15:42.968Z,98586.27
2022-12-31T00:15:52.948Z,98591.57
2022-12-31T00:16:08.271Z,98586.77
2022-12-31T00:16:12.981Z,98589.02
2022-12-31T00:16:23.034Z,98592.73
2022-12-31T00:16:33.132Z,98592.56
2022-12-31T00:16:43.037Z,98587.77
2022-12-31T00:16:52.963Z,98586.20
2022-12-31T00:17:03.038Z,98582.23
2022-12-31T00:17:13.019Z,98582.53
2022-12-31T00:17:22.942Z,98589.54
2022-12-31T00:17:32.949Z,98591.31
2022-12-31T00:17:43.017Z,98579.27
2022-12-31T00:17:53.011Z,98581.02
2022-12-31T00:18:03.005Z,98583.50
2022-12-31T00:18:13.048Z,98587.33
2022-12-31T00:18:22.936Z,98586.22
2022-12-31T00:18:33.015Z,98587.42
2022-12-31T00:18:42.928Z,98582.95
2022-12-31T00:18:52.980Z,98578.55
2022-12-31T00:19:02.942Z,98583.86
2022-12-31T00:19:13.012Z,98583.17
2022-12-31T00:19:22.919Z,98586.55
2022-12-31T00:19:32.932Z,98586.65
2022-12-31T00:19:43.028Z,98592.69
2022-12-31T00:19:53.017Z,98589.20
2022-12-31T00:20:02.944Z,98584.90
2022-12-31T00:20:12.995Z,98587.59
2022-12-31T00:20:22.917Z,98586.81
2022-12-31T00:20:32.985Z,98585.98
2022-12-31T00:20:43.014Z,98587.88
2022-12-31T00:20:52.939Z,98586.34
2022-12-31T00:21:03.017Z,98587.42
2022-12-31T00:21:13.039Z,98592.88
2022-12-31T00:21:23.044Z,98587.78
2022-12-31T00:21:33.023Z,98584.92
2022-12-31T00:21:42.915Z,98588.28
2022-12-31T00:21:52.949Z,98589.18
2022-12-31T00:22:02.964Z,98596.84
2022-12-31T00:22:12.990Z,98591.73
2022-12-31T00:22:23.027Z,98587.00
2022-12-31T00:22:32.982Z,98587.23
2022-12-31T00:22:42.991Z,98585.89
2022-12-31T00:22:53.018Z,98592.87
2022-12-31T00:23:03.004Z,98590.55
2022-12-31T00:23:12.982Z,98585.39
2022-12-31T00:23:22.922Z,98585.96
2022-12-31T00:23:32.988Z,98587.29
2022-12-31T00:23:43.008Z,98595.07
2022-12-31T00:23:52.919Z,98590.91
2022-12-31T00:24:02.989Z,98596.61
2022-12-31T00:24:13.006Z,98588.84
2022-12-31T00:24:22.997Z,98594.81
2022-12-31T00:24:33.031Z,98590.95
2022-12-31T00:24:43.025Z,98598.67
2022-12-31T00:24:52.988Z,98592.88
2022-12-31T00:25:03.011Z,98595.02
2022-12-31T00:25:13.003Z,98592.13
2022-12-31T00:25:22.985Z,98585.99
2022-12-31T00:25:33.049Z,98589.30
2022-12-31T00:25:42.930Z,98593.04
2022-12-31T00:25:53.052Z,98586.75
2022-12-31T00:26:02.930Z,98582.77
2022-12-31T00:26:12.996Z,98590.16
2022-12-31T00:26:23.037Z,98593.75
2022-12-31T00:26:32.949Z,98590.88
2022-12-31T00:26:43.018Z,98590.06
2022-12-31T00:26:52.994Z,98590.08
2022-12-31T00:27:02.971Z,98592.28
2022-12-31T00:27:13.016Z,98593.08
2022-12-31T00:27:23.016Z,98592.80
2022-12-31T00:27:33.030Z,98592.47
2022-12-31T00:27:42.943Z,98595.28
2022-12-31T00:27:52.953Z,98590.17
2022-12-31T00:28:03.018Z,98595.14
2022-12-31T00:28:13.000Z,98587.85
2022-12-31T00:28:23.008Z,98591.50
2022-12-31T00:28:32.963Z,98590.55
2022-12-31T00:28:42.970Z,98592.95
2022-12-31T00:28:52.957Z,98592.83
2022-12-31T00:29:02.973Z,98597.62
2022-12-31T00:29:13.034Z,98598.52
2022-12-31T00:29:23.022Z,98597.84
2022-12-31T00:29:32.938Z,98593.86
2022-12-31T00:29:42.963Z,98594.70
2022-12-31T00:29:52.976Z,98599.16
2022-12-31T00:30:04.921Z,98595.52
2022-12-31T00:30:12.994Z,98595.08
2022-12-31T00:30:23.035Z,98603.64
2022-12-31T00:30:33.183Z,98591.22
2022-12-31T00:30:42.990Z,98584.90
2022-12-31T00:30:53.048Z,98583.41
2022-12-31T00:31:02.996Z,98587.86
2022-12-31T00:31:12.994Z,98587.69
2022-12-31T00:31:23.024Z,98592.25
2022-12-31T00:31:33.054Z,98597.67
2022-12-31T00:31:42.946Z,98597.20
2022-12-31T00:31:52.915Z,98588.80
2022-12-31T00:32:02.939Z,98584.83
2022-12-31T00:32:13.047Z,98582.89
2022-12-31T00:32:23.011Z,98580.57
2022-12-31T00:32:32.922Z,98583.24
2022-12-31T00:32:43.034Z,98584.19
2022-12-31T00:32:53.004Z,98577.42
2022-12-31T00:33:02.980Z,98574.68
2022-12-31T00:33:12.922Z,98576.00
2022-12-31T00:33:23.007Z,98579.73
2022-12-31T00:33:32.944Z,98579.98
2022-12-31T00:33:43.033Z,98576.50
2022-12-31T00:33:52.987Z,98584.12
2022-12-31T00:34:02.962Z,98579.64
2022-12-31T00:34:13.019Z,98575.17
2022-12-31T00:34:22.987Z,98579.53
2022-12-31T00:34:32.974Z,98583.01
2022-12-31T00:34:42.997Z,98576.48
2022-12-31T00:34:52.912Z,98572.58
2022-12-31T00:35:03.041Z,98574.05
2022-12-31T00:35:13.022Z,98577.28
2022-12-31T00:35:22.961Z,98578.33
2022-12-31T00:35:32.989Z,98577.16
2022-12-31T00:35:42.963Z,98579.41
2022-12-31T00:35:55.363Z,98574.20
2022-12-31T00:36:02.975Z,98575.52
2022-12-31T00:36:12.916Z,98576.52
2022-12-31T00:36:23.034Z,98572.17
2022-12-31T00:36:32.953Z,98574.09
2022-12-31T00:36:42.935Z,98576.41
2022-12-31T00:36:52.983Z,98574.51
2022-12-31T00:37:03.039Z,98571.86
2022-12-31T00:37:12.974Z,98564.88
2022-12-31T00:37:22.980Z,98569.52
2022-12-31T00:37:32.920Z,98569.59
2022-12-31T00:37:43.035Z,98565.54
2022-12-31T00:37:52.977Z,98576.85
2022-12-31T00:38:02.968Z,98572.12
2022-12-31T00:38:13.036Z,98572.76
2022-12-31T00:38:23.009Z,98572.52
2022-12-31T00:38:32.960Z,98571.50
2022-12-31T00:38:43.024Z,98568.47
2022-12-31T00:38:52.926Z,98569.84
2022-12-31T00:39:03.015Z,98568.73
2022-12-31T00:39:12.973Z,98570.73
2022-12-31T00:39:22.969Z,98580.38
2022-12-31T00:39:32.963Z,98576.20
2022-12-31T00:39:43.013Z,98569.11
2022-12-31T00:39:52.927Z,98570.06
2022-12-31T00:40:02.929Z,98573.22
2022-12-31T00:40:12.988Z,98574.59
2022-12-31T00:40:22.948Z,98579.41
2022-12-31T00:40:33.019Z,98570.30
2022-12-31T00:40:42.987Z,98571.23
2022-12-31T00:40:53.036Z,98570.88
2022-12-31T00:41:03.023Z,98574.98
2022-12-31T00:41:12.964Z,98568.89
2022-12-31T00:41:22.986Z,98577.01
2022-12-31T00:41:33.037Z,98572.94
2022-12-31T00:41:42.947Z,98570.95
2022-12-31T00:41:53.035Z,98571.53
2022-12-31T00:42:02.974Z,98577.58
2022-12-31T00:42:13.071Z,98576.04
2022-12-31T00:42:22.954Z,98576.53
2022-12-31T00:42:32.998Z,98578.84
2022-12-31T00:42:42.926Z,98577.37
2022-12-31T00:42:52.997Z,98575.12
2022-12-31T00:43:02.921Z,98578.67
2022-12-31T00:43:13.013Z,98581.81
2022-12-31T00:43:22.972Z,98582.86
2022-12-31T00:43:33.056Z,98582.34
2022-12-31T00:43:42.949Z,98578.91
2022-12-31T00:43:52.939Z,98578.08
2022-12-31T00:44:03.042Z,98578.86
2022-12-31T00:44:12.939Z,98579.57
2022-12-31T00:44:22.942Z,98585.49
2022-12-31T00:44:32.985Z,98584.83
2022-12-31T00:44:42.957Z,98585.84
2022-12-31T00:44:53.035Z,98582.16
2022-12-31T00:45:03.037Z,98585.52
2022-12-31T00:45:12.969Z,98585.03
2022-12-31T00:45:22.959Z,98590.83
2022-12-31T00:45:32.918Z,98590.88
2022-12-31T00:45:43.042Z,98593.44
2022-12-31T00:45:52.968Z,98586.83
2022-12-31T00:46:03.025Z,98592.47
2022-12-31T00:46:13.020Z,98586.17
2022-12-31T00:46:23.094Z,98591.02
2022-12-31T00:46:33.024Z,98590.88
2022-12-31T00:46:56.160Z,98590.88
2022-12-31T00:46:56.353Z,98592.95
2022-12-31T00:46:56.557Z,98587.92
2022-12-31T00:46:56.759Z,98589.86
2022-12-31T00:46:56.962Z,98586.98
2022-12-31T00:46:57.180Z,98584.07
2022-12-31T00:47:06.211Z,98588.49
2022-12-31T00:47:16.257Z,98585.63
2022-12-31T00:47:26.183Z,98589.44
2022-12-31T00:47:36.163Z,98589.14
2022-12-31T00:47:46.176Z,98587.23
2022-12-31T00:47:56.178Z,98592.09
2022-12-31T00:48:06.170Z,98588.98
2022-12-31T00:48:16.301Z,98594.43
2022-12-31T00:48:26.272Z,98588.02
2022-12-31T00:48:36.207Z,98593.65
2022-12-31T00:48:46.222Z,98587.73
2022-12-31T00:48:56.161Z,98590.07
2022-12-31T00:49:06.230Z,98592.56
2022-12-31T00:49:16.177Z,98589.73
2022-12-31T00:49:26.310Z,98598.16
2022-12-31T00:49:36.189Z,98589.70
2022-12-31T00:49:46.277Z,98602.02
2022-12-31T00:49:56.253Z,98596.97
2022-12-31T00:50:06.291Z,98591.06
2022-12-31T00:50:16.304Z,98594.45
2022-12-31T00:50:26.224Z,98591.16
2022-12-31T00:50:36.221Z,98594.12
2022-12-31T00:50:46.269Z,98599.80
2022-12-31T00:50:56.232Z,98595.98
2022-12-31T00:51:06.168Z,98602.02
2022-12-31T00:51:16.241Z,98606.80
2022-12-31T00:51:26.222Z,98597.34
2022-12-31T00:51:36.200Z,98606.09
2022-12-31T00:51:46.262Z,98599.25
2022-12-31T00:51:56.205Z,98605.43
2022-12-31T00:52:06.235Z,98602.46
2022-12-31T00:52:16.224Z,98601.66
2022-12-31T00:52:26.241Z,98606.02
2022-12-31T00:52:36.240Z,98604.29
2022-12-31T00:52:46.255Z,98609.26
2022-12-31T00:52:56.251Z,98612.70
2022-12-31T00:53:06.216Z,98604.86
2022-12-31T00:53:16.291Z,98602.80
2022-12-31T00:53:26.231Z,98602.78
2022-12-31T00:53:36.230Z,98613.88
2022-12-31T00:53:46.290Z,98609.28
2022-12-31T00:53:56.203Z,98615.48
2022-12-31T00:54:06.298Z,98610.35
2022-12-31T00:54:16.202Z,98610.19
2022-12-31T00:54:26.203Z,98613.42
2022-12-31T00:54:36.171Z,98613.55
2022-12-31T00:54:46.293Z,98611.39
2022-12-31T00:54:56.285Z,98609.33
2022-12-31T00:55:06.258Z,98610.59
2022-12-31T00:55:16.265Z,98610.97
2022-12-31T00:55:26.266Z,98612.20
2022-12-31T00:55:36.256Z,98606.56
2022-12-31T00:55:46.271Z,98608.31
2022-12-31T00:55:56.203Z,98605.95
2022-12-31T00:56:06.271Z,98610.25
2022-12-31T00:56:16.201Z,98613.56
2022-12-31T00:56:26.280Z,98608.59
2022-12-31T00:56:36.197Z,98608.72
2022-12-31T00:56:46.222Z,98610.39
2022-12-31T00:56:56.234Z,98612.72
2022-12-31T00:57:06.182Z,98613.50
2022-12-31T00:57:16.304Z,98619.58
2022-12-31T00:57:26.186Z,98614.20
2022-12-31T00:57:36.289Z,98616.64
2022-12-31T00:57:46.311Z,98612.38
2022-12-31T00:57:56.227Z,98611.80
2022-12-31T00:58:06.210Z,98609.31
2022-12-31T00:58:16.228Z,98611.12
2022-12-31T00:58:26.323Z,98614.94
2022-12-31T00:58:36.283Z,98609.75
2022-12-31T00:58:46.281Z,98612.79
2022-12-31T00:58:56.236Z,98615.44
2022-12-31T00:59:06.296Z,98610.88
2022-12-31T00:59:16.278Z,98616.15
2022-12-31T00:59:26.255Z,98614.33
2022-12-31T00:59:36.297Z,98615.66
2022-12-31T00:59:46.269Z,98619.97
2022-12-31T00:59:56.186Z,98619.80
2022-12-31T01:00:06.256Z,98617.31
2022-12-31T01:00:16.246Z,98616.31
2022-12-31T01:00:26.217Z,98616.95
2022-12-31T01:00:36.218Z,98613.89
2022-12-31T01:00:46.249Z,98621.07
2022-12-31T01:00:56.307Z,98613.40
2022-12-31T01:01:06.268Z,98618.27
2022-12-31T01:01:16.525Z,98615.77
2022-12-31T01:01:26.384Z,98617.94
2022-12-31T01:01:36.434Z,98617.56
2022-12-31T01:01:46.429Z,98617.07
2022-12-31T01:01:56.500Z,98613.61
2022-12-31T01:02:06.534Z,98617.75
2022-12-31T01:02:16.500Z,98616.97
2022-12-31T01:02:26.444Z,98615.81
2022-12-31T01:02:36.482Z,98616.56
2022-12-31T01:02:46.332Z,98609.84
2022-12-31T01:02:56.378Z,98612.25
2022-12-31T01:03:06.338Z,98607.45
2022-12-31T01:03:16.271Z,98610.55
2022-12-31T01:03:26.308Z,98607.99
2022-12-31T01:03:36.222Z,98608.49
2022-12-31T01:03:46.263Z,98614.27
2022-12-31T01:03:56.172Z,98604.91
2022-12-31T01:04:06.170Z,98606.23
2022-12-31T01:04:16.226Z,98607.94
2022-12-31T01:04:26.247Z,98605.95
2022-12-31T01:04:36.166Z,98601.15
2022-12-31T01:04:46.279Z,98611.47
2022-12-31T01:04:56.268Z,98608.38
2022-12-31T01:05:06.234Z,98605.17
2022-12-31T01:05:16.267Z,98604.18
2022-12-31T01:05:26.225Z,98599.04
2022-12-31T01:05:36.262Z,98609.98
2022-12-31T01:05:46.203Z,98605.67
2022-12-31T01:05:56.267Z,98608.87
2022-12-31T01:06:06.179Z,98605.81
2022-12-31T01:06:16.259Z,98602.07
2022-12-31T01:06:26.182Z,98604.75
2022-12-31T01:06:36.271Z,98601.80
2022-12-31T01:06:46.215Z,98607.84
2022-12-31T01:06:56.299Z,98605.12
2022-12-31T01:07:06.256Z,98607.48
2022-12-31T01:07:16.271Z,98607.48
2022-12-31T01:07:26.180Z,98608.70
2022-12-31T01:07:36.287Z,98608.03
2022-12-31T01:07:46.197Z,98609.65
2022-12-31T01:07:56.195Z,98606.95
2022-12-31T01:08:06.217Z,98607.33
2022-12-31T01:08:16.200Z,98612.47
2022-12-31T01:08:26.165Z,98608.16
2022-12-31T01:08:36.162Z,98608.98
2022-12-31T01:08:46.156Z,98604.86
2022-12-31T01:08:56.215Z,98605.64
2022-12-31T01:09:06.155Z,98602.33
2022-12-31T01:09:16.287Z,98605.41
2022-12-31T01:09:26.266Z,98604.81
2022-12-31T01:09:36.268Z,98604.91
2022-12-31T01:09:46.222Z,98608.22
2022-12-31T01:09:56.197Z,98605.23
2022-12-31T01:10:06.169Z,98607.60
2022-12-31T01:10:16.264Z,98605.78
2022-12-31T01:10:26.212Z,98599.31
2022-12-31T01:10:36.225Z,98604.09
2022-12-31T01:10:46.166Z,98605.47
2022-12-31T01:10:56.208Z,98604.14
2022-12-31T01:11:06.213Z,98609.78
2022-12-31T01:11:16.239Z,98608.45
2022-12-31T01:11:26.241Z,98610.82
2022-12-31T01:11:36.190Z,98602.20
2022-12-31T01:11:46.277Z,98602.91
2022-12-31T01:11:56.169Z,98604.88
2022-12-31T01:12:06.299Z,98605.95
2022-12-31T01:12:16.161Z,98606.17
2022-12-31T01:12:26.283Z,98602.48
2022-12-31T01:12:36.213Z,98604.52
2022-12-31T01:12:46.226Z,98605.02
2022-12-31T01:12:56.163Z,98600.96
2022-12-31T01:13:06.307Z,98604.03
2022-12-31T01:13:16.302Z,98604.94
2022-12-31T01:13:26.190Z,98605.52
2022-12-31T01:13:36.295Z,98610.67
2022-12-31T01:13:46.193Z,98608.98
2022-12-31T01:13:56.191Z,98606.71
2022-12-31T01:14:06.221Z,98604.52
2022-12-31T01:14:16.224Z,98607.50
2022-12-31T01:14:26.188Z,98602.77
2022-12-31T01:14:36.220Z,98603.84
2022-12-31T01:14:46.229Z,98610.59
2022-12-31T01:14:56.220Z,98612.09
2022-12-31T01:15:06.181Z,98613.62
2022-12-31T01:15:16.210Z,98611.76
2022-12-31T01:15:26.271Z,98613.49
2022-12-31T01:15:36.272Z,98607.36
2022-12-31T01:15:46.210Z,98609.27
2022-12-31T01:15:56.419Z,98612.05
2022-12-31T01:16:06.303Z,98607.07
2022-12-31T01:16:16.352Z,98609.68
2022-12-31T01:16:26.219Z,98608.23
2022-12-31T01:16:36.175Z,98610.22
2022-12-31T01:16:46.173Z,98610.51
2022-12-31T01:16:56.208Z,98608.73
2022-12-31T01:17:06.223Z,98608.06
2022-12-31T01:17:16.215Z,98613.38
2022-12-31T01:17:26.176Z,98613.53
2022-12-31T01:17:36.230Z,98612.26
2022-12-31T01:17:46.251Z,98610.41
2022-12-31T01:17:56.272Z,98613.61
2022-12-31T01:18:06.251Z,98611.70
2022-12-31T01:18:16.212Z,98613.73
2022-12-31T01:18:26.253Z,98613.38
2022-12-31T01:18:36.193Z,98614.41
2022-12-31T01:18:46.216Z,98617.07
2022-12-31T01:18:56.277Z,98623.42
2022-12-31T01:19:06.185Z,98623.68
2022-12-31T01:19:16.225Z,98617.88
2022-12-31T01:19:26.206Z,98622.69
2022-12-31T01:19:36.159Z,98618.22
2022-12-31T01:19:46.236Z,98622.36
2022-12-31T01:19:56.228Z,98621.38
2022-12-31T01:20:06.192Z,98625.59
2022-12-31T01:20:16.295Z,98624.03
2022-12-31T01:20:26.192Z,98621.78
2022-12-31T01:20:36.232Z,98626.19
2022-12-31T01:20:46.203Z,98625.05
2022-12-31T01:20:56.205Z,98627.99
2022-12-31T01:21:06.217Z,98625.34
2022-12-31T01:21:16.208Z,98625.62
2022-12-31T01:21:26.297Z,98627.11
2022-12-31T01:21:36.288Z,98627.16
2022-12-31T01:21:46.222Z,98623.89
2022-12-31T01:21:56.263Z,98632.97
2022-12-31T01:22:06.238Z,98627.33
2022-12-31T01:22:16.269Z,98626.59
2022-12-31T01:22:26.215Z,98627.42
2022-12-31T01:22:36.188Z,98623.23
2022-12-31T01:22:46.277Z,98621.86
2022-12-31T01:22:56.229Z,98623.02
2022-12-31T01:23:06.176Z,98621.41
2022-12-31T01:23:16.289Z,98619.30
2022-12-31T01:23:26.253Z,98623.53
2022-12-31T01:23:36.225Z,98621.92
2022-12-31T01:23:46.181Z,98618.06
2022-12-31T01:23:56.180Z,98625.19
2022-12-31T01:24:06.216Z,98625.19
2022-12-31T01:24:16.291Z,98625.69
2022-12-31T01:24:26.155Z,98626.19
2022-12-31T01:24:36.210Z,98624.60
2022-12-31T01:24:46.219Z,98621.38
2022-12-31T01:24:56.233Z,98616.98
2022-12-31T01:25:06.261Z,98620.87
2022-12-31T01:25:16.222Z,98621.69
2022-12-31T01:25:26.229Z,98624.67
2022-12-31T01:25:36.299Z,98619.04
2022-12-31T01:25:46.291Z,98624.44
2022-12-31T01:25:56.272Z,98623.44
2022-12-31T01:26:06.180Z,98619.23
2022-12-31T01:26:16.202Z,98624.98
2022-12-31T01:26:26.298Z,98621.69
2022-12-31T01:26:36.211Z,98619.44
2022-12-31T01:26:46.275Z,98622.80
2022-12-31T01:26:56.264Z,98621.80
2022-12-31T01:27:06.253Z,98622.73
2022-12-31T01:27:16.299Z,98622.97
2022-12-31T01:27:26.224Z,98621.41
2022-12-31T01:27:36.204Z,98627.62
2022-12-31T01:27:46.244Z,98630.98
2022-12-31T01:27:56.256Z,98627.27
2022-12-31T01:28:06.191Z,98624.69
2022-12-31T01:28:16.241Z,98626.34
2022-12-31T01:28:26.308Z,98629.97
2022-12-31T01:28:36.240Z,98630.05
2022-12-31T01:28:46.236Z,98630.70
2022-12-31T01:28:56.202Z,98632.86
2022-12-31T01:29:06.233Z,98627.52
2022-12-31T01:29:16.280Z,98632.41
2022-12-31T01:29:26.285Z,98628.76
2022-12-31T01:29:36.265Z,98631.80
2022-12-31T01:29:46.228Z,98634.35
2022-12-31T01:29:56.220Z,98631.66
2022-12-31T01:30:06.228Z,98631.16
2022-12-31T01:30:16.240Z,98634.88
2022-12-31T01:30:26.207Z,98630.84
2022-12-31T01:30:36.282Z,98631.27
2022-12-31T01:30:46.239Z,98628.34
2022-12-31T01:30:56.322Z,98627.52
2022-12-31T01:31:06.265Z,98627.52
2022-12-31T01:31:16.294Z,98627.77
2022-12-31T01:31:26.220Z,98631.98
2022-12-31T01:31:36.207Z,98629.42
2022-12-31T01:31:46.295Z,98629.83
2022-12-31T01:31:56.222Z,98629.88
2022-12-31T01:32:06.240Z,98629.26
2022-12-31T01:32:16.273Z,98630.83
2022-12-31T01:32:26.230Z,98632.15
2022-12-31T01:32:36.241Z,98632.58
2022-12-31T01:32:46.280Z,98633.31
2022-12-31T01:32:56.193Z,98632.31
2022-12-31T01:33:06.191Z,98628.24
2022-12-31T01:33:16.169Z,98630.66
2022-12-31T01:33:26.214Z,98629.05
2022-12-31T01:33:36.286Z,98631.95
2022-12-31T01:33:46.257Z,98633.86
2022-12-31T01:33:56.299Z,98625.66
2022-12-31T01:34:06.160Z,98631.30
2022-12-31T01:34:16.288Z,98635.13
2022-12-31T01:34:26.275Z,98632.48
2022-12-31T01:34:36.209Z,98631.98
2022-12-31T01:34:46.247Z,98638.42
2022-12-31T01:34:56.168Z,98636.34
2022-12-31T01:35:06.252Z,98637.22
2022-12-31T01:35:16.229Z,98639.04
2022-12-31T01:35:26.240Z,98639.61
2022-12-31T01:35:36.269Z,98636.62
2022-12-31T01:35:46.292Z,98636.20
2022-12-31T01:35:56.233Z,98638.36
2022-12-31T01:36:06.266Z,98637.91
2022-12-31T01:36:21.740Z,98637.69
2022-12-31T01:36:26.781Z,98643.54
2022-12-31T01:36:36.191Z,98640.55
2022-12-31T01:36:46.177Z,98640.18
2022-12-31T01:36:56.271Z,98639.05
2022-12-31T01:37:06.206Z,98641.95
2022-12-31T01:37:16.202Z,98646.30
2022-12-31T01:37:26.287Z,98643.97
2022-12-31T01:37:36.231Z,98638.78
2022-12-31T01:37:46.168Z,98638.69
2022-12-31T01:37:56.286Z,98640.77
2022-12-31T01:38:06.166Z,98640.76
2022-12-31T01:38:16.277Z,98642.84
2022-12-31T01:38:26.292Z,98638.36
2022-12-31T01:38:36.246Z,98634.78
2022-12-31T01:38:46.165Z,98633.62
2022-12-31T01:38:56.325Z,98631.97
2022-12-31T01:39:06.246Z,98632.42
2022-12-31T01:39:16.239Z,98632.59
2022-12-31T01:39:26.245Z,98636.73
2022-12-31T01:39:36.329Z,98630.59
2022-12-31T01:39:46.227Z,98630.59
2022-12-31T01:39:56.284Z,98631.67
2022-12-31T01:40:06.294Z,98631.67
2022-12-31T01:40:16.268Z,98634.31
2022-12-31T01:40:26.216Z,98633.98
2022-12-31T01:40:36.277Z,98633.41
2022-12-31T01:40:46.219Z,98636.64
2022-12-31T01:40:56.277Z,98639.72
2022-12-31T01:41:06.201Z,98640.88
2022-12-31T01:41:16.266Z,98636.47
2022-12-31T01:41:26.252Z,98639.55
2022-12-31T01:41:36.239Z,98636.89
2022-12-31T01:41:46.251Z,98639.12
2022-12-31T01:41:56.257Z,98633.33
2022-12-31T01:42:06.178Z,98632.33
2022-12-31T01:42:16.214Z,98629.55
2022-12-31T01:42:26.169Z,98634.98
2022-12-31T01:42:36.274Z,98634.91
2022-12-31T01:42:46.188Z,98637.94
2022-12-31T01:42:56.270Z,98637.44
2022-12-31T01:43:06.188Z,98640.61
2022-12-31T01:43:16.283Z,98640.26
2022-12-31T01:43:26.224Z,98639.59
2022-12-31T01:43:36.175Z,98639.92
2022-12-31T01:43:46.266Z,98639.92
2022-12-31T01:43:56.291Z,98634.91
2022-12-31T01:44:06.208Z,98633.41
2022-12-31T01:44:16.189Z,98634.98
2022-12-31T01:44:26.276Z,98637.39
2022-12-31T01:44:36.247Z,98642.95
2022-12-31T01:44:46.209Z,98640.70
2022-12-31T01:44:56.176Z,98634.08
2022-12-31T01:45:06.216Z,98636.48
2022-12-31T01:45:16.159Z,98633.58
2022-12-31T01:45:26.160Z,98630.52
2022-12-31T01:45:36.161Z,98631.97
2022-12-31T01:45:46.261Z,98634.12
2022-12-31T01:45:56.209Z,98633.06
2022-12-31T01:46:06.163Z,98633.30
2022-12-31T01:46:16.241Z,98629.50
2022-12-31T01:46:26.287Z,98627.92
2022-12-31T01:46:36.363Z,98626.67
2022-12-31T01:46:46.287Z,98621.03
2022-12-31T01:46:56.239Z,98621.45
2022-12-31T01:47:06.181Z,98623.38
2022-12-31T01:47:16.271Z,98622.54
2022-12-31T01:47:26.267Z,98623.77
2022-12-31T01:47:36.262Z,98619.38
2022-12-31T01:47:46.237Z,98619.88
2022-12-31T01:47:56.253Z,98625.34
2022-12-31T01:48:06.290Z,98627.54
2022-12-31T01:48:16.295Z,98625.58
2022-12-31T01:48:26.204Z,98627.35
2022-12-31T01:48:36.190Z,98627.49
2022-12-31T01:48:46.220Z,98629.51
2022-12-31T01:48:56.186Z,98630.93
2022-12-31T01:49:06.215Z,98625.20
2022-12-31T01:49:16.221Z,98623.80
2022-12-31T01:49:26.270Z,98626.69
2022-12-31T01:49:36.169Z,98631.35
2022-12-31T01:49:46.222Z,98634.36
2022-12-31T01:49:56.229Z,98637.06
2022-12-31T01:50:06.229Z,98634.36
2022-12-31T01:50:16.283Z,98640.50
2022-12-31T01:50:26.253Z,98640.14
2022-12-31T01:50:36.226Z,98639.69
2022-12-31T01:50:46.169Z,98636.45
2022-12-31T01:50:56.228Z,98640.92
2022-12-31T01:51:06.289Z,98636.45
2022-12-31T01:51:16.244Z,98638.53
2022-12-31T01:51:26.203Z,98641.68
2022-12-31T01:51:36.246Z,98641.18
2022-12-31T01:51:46.196Z,98641.32
2022-12-31T01:51:56.234Z,98641.30
2022-12-31T01:52:06.239Z,98641.23
2022-12-31T01:52:16.243Z,98640.48
2022-12-31T01:52:26.201Z,98638.53
2022-12-31T01:52:36.287Z,98640.83
2022-12-31T01:52:46.203Z,98642.48
2022-12-31T01:52:56.236Z,98647.59
2022-12-31T01:53:06.288Z,98644.30
2022-12-31T01:53:16.294Z,98645.34
2022-12-31T01:53:26.177Z,98642.11
2022-12-31T01:53:39.367Z,98641.78
2022-12-31T01:53:46.191Z,98638.17
2022-12-31T01:53:56.183Z,98635.27
2022-12-31T01:54:06.166Z,98642.53
2022-12-31T01:54:16.200Z,98642.03
2022-12-31T01:54:26.273Z,98642.98
2022-12-31T01:54:36.259Z,98643.97
2022-12-31T01:54:46.202Z,98639.91
2022-12-31T01:54:56.294Z,98641.48
2022-12-31T01:55:06.235Z,98642.80
2022-12-31T01:55:16.189Z,98640.64
2022-12-31T01:55:26.289Z,98640.16
2022-12-31T01:55:36.252Z,98634.55
2022-12-31T01:55:46.175Z,98632.97
2022-12-31T01:55:56.239Z,98634.05
2022-12-31T01:56:06.158Z,98631.88
2022-12-31T01:56:16.163Z,98634.58